sensor_id;sensor_type;location;lat;lon;timestamp;P1;durP1;ratioP1;P2;durP2;ratioP2
37407;SDS011;24866;50.248;8.252;2023-07-28T00:02:14;2.58;;;1.00;;
37407;SDS011;24866;50.248;8.252;2023-07-28T00:04:44;1.17;;;0.80;;
37407;SDS011;24866;50.248;8.252;2023-07-28T00:07:14;2.10;;;0.93;;
37407;SDS011;24866;50.248;8.252;2023-07-28T00:09:45;1.75;;;0.90;;
37407;SDS011;24866;50.248;8.252;2023-07-28T00:12:15;2.15;;;1.00;;
37407;SDS011;24866;50.248;8.252;2023-07-28T00:14:45;4.60;;;1.08;;
37407;SDS011;24866;50.248;8.252;2023-07-28T00:17:15;2.70;;;1.13;;
37407;SDS011;24866;50.248;8.252;2023-07-28T00:19:45;1.77;;;0.88;;
37407;SDS011;24866;50.248;8.252;2023-07-28T00:22:14;2.85;;;0.90;;
37407;SDS011;24866;50.248;8.252;2023-07-28T00:24:45;4.07;;;0.95;;
37407;SDS011;24866;50.248;8.252;2023-07-28T00:27:15;3.30;;;0.90;;
37407;SDS011;24866;50.248;8.252;2023-07-28T00:29:46;1.75;;;1.00;;
37407;SDS011;24866;50.248;8.252;2023-07-28T00:32:16;3.55;;;1.10;;
37407;SDS011;24866;50.248;8.252;2023-07-28T00:34:46;3.83;;;0.93;;
37407;SDS011;24866;50.248;8.252;2023-07-28T00:37:16;2.40;;;1.30;;
37407;SDS011;24866;50.248;8.252;2023-07-28T00:39:47;2.55;;;1.20;;
37407;SDS011;24866;50.248;8.252;2023-07-28T00:42:17;3.70;;;1.20;;
37407;SDS011;24866;50.248;8.252;2023-07-28T00:44:47;2.35;;;1.13;;
37407;SDS011;24866;50.248;8.252;2023-07-28T00:47:17;2.53;;;1.20;;
37407;SDS011;24866;50.248;8.252;2023-07-28T00:49:47;3.10;;;1.05;;
37407;SDS011;24866;50.248;8.252;2023-07-28T00:52:17;4.03;;;1.27;;
37407;SDS011;24866;50.248;8.252;2023-07-28T00:54:48;2.33;;;0.95;;
37407;SDS011;24866;50.248;8.252;2023-07-28T00:57:18;2.75;;;1.10;;
37407;SDS011;24866;50.248;8.252;2023-07-28T00:59:48;3.25;;;1.17;;
37407;SDS011;24866;50.248;8.252;2023-07-28T01:02:18;3.63;;;1.17;;
37407;SDS011;24866;50.248;8.252;2023-07-28T01:04:48;4.35;;;1.13;;
37407;SDS011;24866;50.248;8.252;2023-07-28T01:07:21;3.47;;;1.38;;
37407;SDS011;24866;50.248;8.252;2023-07-28T01:10:01;2.70;;;0.80;;
37407;SDS011;24866;50.248;8.252;2023-07-28T01:12:35;5.00;;;1.40;;
37407;SDS011;24866;50.248;8.252;2023-07-28T01:15:06;4.25;;;1.30;;
37407;SDS011;24866;50.248;8.252;2023-07-28T01:17:36;6.88;;;1.40;;
37407;SDS011;24866;50.248;8.252;2023-07-28T01:20:06;4.05;;;1.27;;
37407;SDS011;24866;50.248;8.252;2023-07-28T01:25:39;4.13;;;1.27;;
37407;SDS011;24866;50.248;8.252;2023-07-28T01:28:22;2.95;;;0.85;;
37407;SDS011;24866;50.248;8.252;2023-07-28T01:30:52;3.63;;;1.20;;
37407;SDS011;24866;50.248;8.252;2023-07-28T01:33:22;2.35;;;1.38;;
37407;SDS011;24866;50.248;8.252;2023-07-28T01:35:52;2.50;;;1.00;;
37407;SDS011;24866;50.248;8.252;2023-07-28T01:38:21;3.20;;;1.10;;
37407;SDS011;24866;50.248;8.252;2023-07-28T01:40:51;2.10;;;1.08;;
37407;SDS011;24866;50.248;8.252;2023-07-28T01:43:22;2.72;;;1.23;;
37407;SDS011;24866;50.248;8.252;2023-07-28T01:45:52;3.88;;;1.20;;
37407;SDS011;24866;50.248;8.252;2023-07-28T01:48:22;6.47;;;1.52;;
37407;SDS011;24866;50.248;8.252;2023-07-28T01:50:52;6.65;;;1.35;;
37407;SDS011;24866;50.248;8.252;2023-07-28T01:53:22;6.45;;;1.55;;
37407;SDS011;24866;50.248;8.252;2023-07-28T01:55:51;2.95;;;1.20;;
37407;SDS011;24866;50.248;8.252;2023-07-28T01:58:22;7.68;;;1.30;;
37407;SDS011;24866;50.248;8.252;2023-07-28T02:00:52;4.75;;;1.10;;
37407;SDS011;24866;50.248;8.252;2023-07-28T02:03:22;5.25;;;1.30;;
37407;SDS011;24866;50.248;8.252;2023-07-28T02:05:52;4.00;;;1.60;;
37407;SDS011;24866;50.248;8.252;2023-07-28T02:08:22;4.40;;;1.35;;
37407;SDS011;24866;50.248;8.252;2023-07-28T02:10:52;4.80;;;1.60;;
37407;SDS011;24866;50.248;8.252;2023-07-28T02:13:24;7.35;;;1.20;;
37407;SDS011;24866;50.248;8.252;2023-07-28T02:15:53;6.32;;;1.80;;
37407;SDS011;24866;50.248;8.252;2023-07-28T02:18:23;3.00;;;1.45;;
37407;SDS011;24866;50.248;8.252;2023-07-28T02:20:53;4.88;;;1.38;;
37407;SDS011;24866;50.248;8.252;2023-07-28T02:23:23;4.60;;;1.48;;
37407;SDS011;24866;50.248;8.252;2023-07-28T02:25:53;6.82;;;2.15;;
37407;SDS011;24866;50.248;8.252;2023-07-28T02:28:24;5.03;;;1.52;;
37407;SDS011;24866;50.248;8.252;2023-07-28T02:30:53;8.35;;;1.92;;
37407;SDS011;24866;50.248;8.252;2023-07-28T02:33:23;3.33;;;1.40;;
37407;SDS011;24866;50.248;8.252;2023-07-28T02:35:53;5.25;;;1.45;;
37407;SDS011;24866;50.248;8.252;2023-07-28T02:38:23;3.65;;;1.40;;
37407;SDS011;24866;50.248;8.252;2023-07-28T02:40:53;3.78;;;1.25;;
37407;SDS011;24866;50.248;8.252;2023-07-28T02:43:24;3.17;;;1.58;;
37407;SDS011;24866;50.248;8.252;2023-07-28T02:45:54;6.65;;;1.20;;
37407;SDS011;24866;50.248;8.252;2023-07-28T02:48:24;6.85;;;1.40;;
37407;SDS011;24866;50.248;8.252;2023-07-28T02:50:54;10.18;;;2.17;;
37407;SDS011;24866;50.248;8.252;2023-07-28T02:53:23;6.68;;;1.70;;
37407;SDS011;24866;50.248;8.252;2023-07-28T02:55:53;6.20;;;1.48;;
37407;SDS011;24866;50.248;8.252;2023-07-28T02:58:26;10.90;;;1.38;;
37407;SDS011;24866;50.248;8.252;2023-07-28T03:00:56;9.27;;;1.63;;
37407;SDS011;24866;50.248;8.252;2023-07-28T03:03:26;11.02;;;1.88;;
37407;SDS011;24866;50.248;8.252;2023-07-28T03:05:56;11.52;;;1.80;;
37407;SDS011;24866;50.248;8.252;2023-07-28T03:08:26;7.60;;;2.05;;
37407;SDS011;24866;50.248;8.252;2023-07-28T03:10:56;8.00;;;2.00;;
37407;SDS011;24866;50.248;8.252;2023-07-28T03:13:27;12.00;;;1.90;;
37407;SDS011;24866;50.248;8.252;2023-07-28T03:15:57;5.00;;;1.48;;
37407;SDS011;24866;50.248;8.252;2023-07-28T03:18:27;6.28;;;1.75;;
37407;SDS011;24866;50.248;8.252;2023-07-28T03:20:57;7.43;;;1.63;;
37407;SDS011;24866;50.248;8.252;2023-07-28T03:23:26;5.70;;;1.92;;
37407;SDS011;24866;50.248;8.252;2023-07-28T03:25:56;5.10;;;1.30;;
37407;SDS011;24866;50.248;8.252;2023-07-28T03:28:27;3.35;;;0.90;;
37407;SDS011;24866;50.248;8.252;2023-07-28T03:30:57;3.20;;;0.85;;
37407;SDS011;24866;50.248;8.252;2023-07-28T03:33:27;3.10;;;0.80;;
37407;SDS011;24866;50.248;8.252;2023-07-28T03:35:57;5.45;;;1.17;;
37407;SDS011;24866;50.248;8.252;2023-07-28T03:38:26;2.67;;;0.85;;
37407;SDS011;24866;50.248;8.252;2023-07-28T03:40:56;2.63;;;0.75;;
37407;SDS011;24866;50.248;8.252;2023-07-28T03:43:27;5.25;;;0.90;;
37407;SDS011;24866;50.248;8.252;2023-07-28T03:45:57;2.38;;;1.02;;
37407;SDS011;24866;50.248;8.252;2023-07-28T03:48:27;3.50;;;0.90;;
37407;SDS011;24866;50.248;8.252;2023-07-28T03:50:57;9.25;;;1.33;;
37407;SDS011;24866;50.248;8.252;2023-07-28T03:53:27;3.05;;;1.05;;
37407;SDS011;24866;50.248;8.252;2023-07-28T03:55:57;4.90;;;0.80;;
37407;SDS011;24866;50.248;8.252;2023-07-28T03:58:28;2.83;;;0.80;;
37407;SDS011;24866;50.248;8.252;2023-07-28T04:00:58;4.40;;;0.60;;
37407;SDS011;24866;50.248;8.252;2023-07-28T04:03:28;1.65;;;0.50;;
37407;SDS011;24866;50.248;8.252;2023-07-28T04:05:57;2.72;;;0.45;;
37407;SDS011;24866;50.248;8.252;2023-07-28T04:08:27;3.15;;;0.55;;
37407;SDS011;24866;50.248;8.252;2023-07-28T04:10:57;2.45;;;0.73;;
37407;SDS011;24866;50.248;8.252;2023-07-28T04:13:28;3.45;;;0.60;;
37407;SDS011;24866;50.248;8.252;2023-07-28T04:15:58;0.82;;;0.38;;
37407;SDS011;24866;50.248;8.252;2023-07-28T04:18:28;5.35;;;0.88;;
37407;SDS011;24866;50.248;8.252;2023-07-28T04:20:58;4.00;;;0.70;;
37407;SDS011;24866;50.248;8.252;2023-07-28T04:23:27;1.90;;;0.57;;
37407;SDS011;24866;50.248;8.252;2023-07-28T04:25:57;3.65;;;0.90;;
37407;SDS011;24866;50.248;8.252;2023-07-28T04:28:28;1.15;;;0.60;;
37407;SDS011;24866;50.248;8.252;2023-07-28T04:30:58;1.58;;;0.32;;
37407;SDS011;24866;50.248;8.252;2023-07-28T04:33:28;0.40;;;0.20;;
37407;SDS011;24866;50.248;8.252;2023-07-28T04:35:58;3.85;;;0.40;;
37407;SDS011;24866;50.248;8.252;2023-07-28T04:38:27;2.78;;;0.30;;
37407;SDS011;24866;50.248;8.252;2023-07-28T04:40:57;0.63;;;0.30;;
37407;SDS011;24866;50.248;8.252;2023-07-28T04:43:28;2.60;;;0.30;;
37407;SDS011;24866;50.248;8.252;2023-07-28T04:45:58;0.82;;;0.30;;
37407;SDS011;24866;50.248;8.252;2023-07-28T04:48:28;2.22;;;0.30;;
37407;SDS011;24866;50.248;8.252;2023-07-28T04:50:58;1.00;;;0.40;;
37407;SDS011;24866;50.248;8.252;2023-07-28T04:53:28;0.77;;;0.38;;
37407;SDS011;24866;50.248;8.252;2023-07-28T04:55:58;1.73;;;0.30;;
37407;SDS011;24866;50.248;8.252;2023-07-28T04:58:30;2.13;;;0.22;;
37407;SDS011;24866;50.248;8.252;2023-07-28T05:01:00;3.83;;;0.52;;
37407;SDS011;24866;50.248;8.252;2023-07-28T05:03:30;1.33;;;0.20;;
37407;SDS011;24866;50.248;8.252;2023-07-28T05:06:00;0.45;;;0.20;;
37407;SDS011;24866;50.248;8.252;2023-07-28T05:08:32;0.90;;;0.20;;
37407;SDS011;24866;50.248;8.252;2023-07-28T05:11:02;1.45;;;0.20;;
37407;SDS011;24866;50.248;8.252;2023-07-28T05:13:33;1.13;;;0.25;;
37407;SDS011;24866;50.248;8.252;2023-07-28T05:16:03;0.52;;;0.20;;
37407;SDS011;24866;50.248;8.252;2023-07-28T05:18:33;0.60;;;0.15;;
37407;SDS011;24866;50.248;8.252;2023-07-28T05:21:03;0.98;;;0.20;;
37407;SDS011;24866;50.248;8.252;2023-07-28T05:23:33;2.92;;;0.40;;
37407;SDS011;24866;50.248;8.252;2023-07-28T05:26:03;3.10;;;0.20;;
37407;SDS011;24866;50.248;8.252;2023-07-28T05:28:34;0.60;;;0.10;;
37407;SDS011;24866;50.248;8.252;2023-07-28T05:31:04;1.95;;;0.20;;
37407;SDS011;24866;50.248;8.252;2023-07-28T05:33:34;1.08;;;0.20;;
37407;SDS011;24866;50.248;8.252;2023-07-28T05:36:04;0.63;;;0.10;;
37407;SDS011;24866;50.248;8.252;2023-07-28T05:38:34;0.73;;;0.32;;
37407;SDS011;24866;50.248;8.252;2023-07-28T05:41:04;0.50;;;0.20;;
37407;SDS011;24866;50.248;8.252;2023-07-28T05:43:36;1.02;;;0.20;;
37407;SDS011;24866;50.248;8.252;2023-07-28T05:46:06;0.22;;;0.10;;
37407;SDS011;24866;50.248;8.252;2023-07-28T05:48:36;0.90;;;0.22;;
37407;SDS011;24866;50.248;8.252;2023-07-28T05:51:05;0.85;;;0.17;;
37407;SDS011;24866;50.248;8.252;2023-07-28T05:53:35;1.83;;;0.60;;
37407;SDS011;24866;50.248;8.252;2023-07-28T05:56:07;1.60;;;0.30;;
37407;SDS011;24866;50.248;8.252;2023-07-28T05:58:38;1.70;;;0.30;;
37407;SDS011;24866;50.248;8.252;2023-07-28T06:01:08;0.30;;;0.20;;
37407;SDS011;24866;50.248;8.252;2023-07-28T06:03:38;0.95;;;0.20;;
37407;SDS011;24866;50.248;8.252;2023-07-28T06:06:08;1.60;;;0.30;;
37407;SDS011;24866;50.248;8.252;2023-07-28T06:08:38;0.68;;;0.20;;
37407;SDS011;24866;50.248;8.252;2023-07-28T06:11:08;0.60;;;0.20;;
37407;SDS011;24866;50.248;8.252;2023-07-28T06:13:39;0.60;;;0.10;;
37407;SDS011;24866;50.248;8.252;2023-07-28T06:16:09;1.80;;;0.20;;
37407;SDS011;24866;50.248;8.252;2023-07-28T06:18:39;1.15;;;0.20;;
37407;SDS011;24866;50.248;8.252;2023-07-28T06:21:08;0.35;;;0.20;;
37407;SDS011;24866;50.248;8.252;2023-07-28T06:23:38;2.00;;;0.30;;
37407;SDS011;24866;50.248;8.252;2023-07-28T06:26:08;1.75;;;0.17;;
37407;SDS011;24866;50.248;8.252;2023-07-28T06:28:39;0.75;;;0.20;;
37407;SDS011;24866;50.248;8.252;2023-07-28T06:31:09;0.85;;;0.20;;
37407;SDS011;24866;50.248;8.252;2023-07-28T06:33:39;0.50;;;0.20;;
37407;SDS011;24866;50.248;8.252;2023-07-28T06:36:09;2.38;;;0.55;;
37407;SDS011;24866;50.248;8.252;2023-07-28T06:38:39;0.40;;;0.20;;
37407;SDS011;24866;50.248;8.252;2023-07-28T06:41:09;0.85;;;0.38;;
37407;SDS011;24866;50.248;8.252;2023-07-28T06:43:40;1.25;;;0.20;;
37407;SDS011;24866;50.248;8.252;2023-07-28T06:46:09;1.25;;;0.25;;
37407;SDS011;24866;50.248;8.252;2023-07-28T06:48:39;0.75;;;0.30;;
37407;SDS011;24866;50.248;8.252;2023-07-28T06:51:09;4.70;;;0.50;;
37407;SDS011;24866;50.248;8.252;2023-07-28T06:53:39;0.50;;;0.20;;
37407;SDS011;24866;50.248;8.252;2023-07-28T06:56:09;0.90;;;0.38;;
37407;SDS011;24866;50.248;8.252;2023-07-28T06:58:40;0.57;;;0.10;;
37407;SDS011;24866;50.248;8.252;2023-07-28T07:01:10;0.55;;;0.20;;
37407;SDS011;24866;50.248;8.252;2023-07-28T07:03:40;0.85;;;0.30;;
37407;SDS011;24866;50.248;8.252;2023-07-28T07:06:10;1.42;;;0.30;;
37407;SDS011;24866;50.248;8.252;2023-07-28T07:08:40;0.30;;;0.13;;
37407;SDS011;24866;50.248;8.252;2023-07-28T07:11:09;0.32;;;0.20;;
37407;SDS011;24866;50.248;8.252;2023-07-28T07:13:41;0.68;;;0.20;;
37407;SDS011;24866;50.248;8.252;2023-07-28T07:16:13;1.38;;;0.20;;
37407;SDS011;24866;50.248;8.252;2023-07-28T07:18:44;0.22;;;0.10;;
37407;SDS011;24866;50.248;8.252;2023-07-28T07:21:14;1.55;;;0.30;;
37407;SDS011;24866;50.248;8.252;2023-07-28T07:23:44;0.20;;;0.10;;
37407;SDS011;24866;50.248;8.252;2023-07-28T07:26:14;1.95;;;0.10;;
37407;SDS011;24866;50.248;8.252;2023-07-28T07:28:45;0.98;;;0.20;;
37407;SDS011;24866;50.248;8.252;2023-07-28T07:31:15;1.35;;;0.25;;
37407;SDS011;24866;50.248;8.252;2023-07-28T07:33:45;2.08;;;0.35;;
37407;SDS011;24866;50.248;8.252;2023-07-28T07:36:15;2.08;;;0.32;;
37407;SDS011;24866;50.248;8.252;2023-07-28T07:38:47;2.92;;;0.35;;
37407;SDS011;24866;50.248;8.252;2023-07-28T07:41:17;0.65;;;0.25;;
37407;SDS011;24866;50.248;8.252;2023-07-28T07:43:50;0.55;;;0.30;;
37407;SDS011;24866;50.248;8.252;2023-07-28T07:46:21;0.43;;;0.25;;
37407;SDS011;24866;50.248;8.252;2023-07-28T07:48:52;1.25;;;0.30;;
37407;SDS011;24866;50.248;8.252;2023-07-28T07:51:22;1.65;;;0.30;;
37407;SDS011;24866;50.248;8.252;2023-07-28T07:53:52;2.35;;;0.38;;
37407;SDS011;24866;50.248;8.252;2023-07-28T07:56:22;0.90;;;0.25;;
37407;SDS011;24866;50.248;8.252;2023-07-28T07:58:53;0.90;;;0.30;;
37407;SDS011;24866;50.248;8.252;2023-07-28T08:01:23;1.60;;;0.45;;
37407;SDS011;24866;50.248;8.252;2023-07-28T08:03:53;1.08;;;0.38;;
37407;SDS011;24866;50.248;8.252;2023-07-28T08:06:23;0.38;;;0.30;;
37407;SDS011;24866;50.248;8.252;2023-07-28T08:08:53;1.65;;;0.47;;
37407;SDS011;24866;50.248;8.252;2023-07-28T08:11:24;0.90;;;0.40;;
37407;SDS011;24866;50.248;8.252;2023-07-28T08:13:56;0.55;;;0.20;;
37407;SDS011;24866;50.248;8.252;2023-07-28T08:16:26;0.43;;;0.28;;
37407;SDS011;24866;50.248;8.252;2023-07-28T08:18:56;0.30;;;0.20;;
37407;SDS011;24866;50.248;8.252;2023-07-28T08:21:25;1.48;;;0.30;;
37407;SDS011;24866;50.248;8.252;2023-07-28T08:23:55;2.40;;;0.28;;
37407;SDS011;24866;50.248;8.252;2023-07-28T08:26:25;2.05;;;0.40;;
37407;SDS011;24866;50.248;8.252;2023-07-28T08:28:56;0.75;;;0.40;;
37407;SDS011;24866;50.248;8.252;2023-07-28T08:31:26;0.70;;;0.45;;
37407;SDS011;24866;50.248;8.252;2023-07-28T08:33:56;1.08;;;0.47;;
37407;SDS011;24866;50.248;8.252;2023-07-28T08:36:26;3.78;;;0.50;;
37407;SDS011;24866;50.248;8.252;2023-07-28T08:38:56;4.40;;;0.40;;
37407;SDS011;24866;50.248;8.252;2023-07-28T08:41:26;1.70;;;0.50;;
37407;SDS011;24866;50.248;8.252;2023-07-28T08:43:57;1.10;;;0.30;;
37407;SDS011;24866;50.248;8.252;2023-07-28T08:46:27;0.80;;;0.40;;
37407;SDS011;24866;50.248;8.252;2023-07-28T08:48:58;1.13;;;0.38;;
37407;SDS011;24866;50.248;8.252;2023-07-28T08:51:28;1.27;;;0.52;;
37407;SDS011;24866;50.248;8.252;2023-07-28T08:53:58;1.33;;;0.40;;
37407;SDS011;24866;50.248;8.252;2023-07-28T08:56:28;0.82;;;0.45;;
37407;SDS011;24866;50.248;8.252;2023-07-28T08:58:59;1.98;;;0.60;;
37407;SDS011;24866;50.248;8.252;2023-07-28T09:01:29;3.15;;;0.55;;
37407;SDS011;24866;50.248;8.252;2023-07-28T09:03:59;1.58;;;0.65;;
37407;SDS011;24866;50.248;8.252;2023-07-28T09:06:29;1.00;;;0.30;;
37407;SDS011;24866;50.248;8.252;2023-07-28T09:09:00;0.95;;;0.40;;
37407;SDS011;24866;50.248;8.252;2023-07-28T09:11:30;1.67;;;0.40;;
37407;SDS011;24866;50.248;8.252;2023-07-28T09:14:02;0.43;;;0.35;;
37407;SDS011;24866;50.248;8.252;2023-07-28T09:16:40;1.55;;;0.50;;
37407;SDS011;24866;50.248;8.252;2023-07-28T09:19:10;0.80;;;0.30;;
37407;SDS011;24866;50.248;8.252;2023-07-28T09:21:42;2.75;;;0.80;;
37407;SDS011;24866;50.248;8.252;2023-07-28T09:24:14;1.83;;;0.38;;
37407;SDS011;24866;50.248;8.252;2023-07-28T09:26:44;1.75;;;0.28;;
37407;SDS011;24866;50.248;8.252;2023-07-28T09:29:17;3.88;;;0.82;;
37407;SDS011;24866;50.248;8.252;2023-07-28T09:34:23;0.93;;;0.40;;
37407;SDS011;24866;50.248;8.252;2023-07-28T09:36:54;0.50;;;0.20;;
37407;SDS011;24866;50.248;8.252;2023-07-28T09:39:24;0.57;;;0.30;;
37407;SDS011;24866;50.248;8.252;2023-07-28T09:41:55;0.52;;;0.38;;
37407;SDS011;24866;50.248;8.252;2023-07-28T09:44:29;0.40;;;0.30;;
37407;SDS011;24866;50.248;8.252;2023-07-28T09:46:59;1.77;;;0.50;;
37407;SDS011;24866;50.248;8.252;2023-07-28T09:49:33;1.63;;;0.43;;
37407;SDS011;24866;50.248;8.252;2023-07-28T09:52:05;4.28;;;0.50;;
37407;SDS011;24866;50.248;8.252;2023-07-28T09:54:39;1.65;;;0.30;;
37407;SDS011;24866;50.248;8.252;2023-07-28T09:57:11;0.85;;;0.30;;
37407;SDS011;24866;50.248;8.252;2023-07-28T09:59:43;1.08;;;0.40;;
37407;SDS011;24866;50.248;8.252;2023-07-28T10:02:16;2.35;;;0.40;;
37407;SDS011;24866;50.248;8.252;2023-07-28T10:04:46;0.65;;;0.40;;
37407;SDS011;24866;50.248;8.252;2023-07-28T10:07:16;1.92;;;0.40;;
37407;SDS011;24866;50.248;8.252;2023-07-28T10:09:47;0.88;;;0.50;;
37407;SDS011;24866;50.248;8.252;2023-07-28T10:12:17;0.20;;;0.15;;
37407;SDS011;24866;50.248;8.252;2023-07-28T10:15:00;1.02;;;0.30;;
37407;SDS011;24866;50.248;8.252;2023-07-28T10:17:32;2.53;;;0.40;;
37407;SDS011;24866;50.248;8.252;2023-07-28T10:20:02;1.00;;;0.40;;
37407;SDS011;24866;50.248;8.252;2023-07-28T10:22:42;1.08;;;0.32;;
37407;SDS011;24866;50.248;8.252;2023-07-28T10:25:13;0.75;;;0.40;;
37407;SDS011;24866;50.248;8.252;2023-07-28T10:27:51;0.77;;;0.40;;
37407;SDS011;24866;50.248;8.252;2023-07-28T10:30:24;0.80;;;0.47;;
37407;SDS011;24866;50.248;8.252;2023-07-28T10:32:54;6.00;;;0.50;;
37407;SDS011;24866;50.248;8.252;2023-07-28T10:35:25;1.08;;;0.40;;
37407;SDS011;24866;50.248;8.252;2023-07-28T10:37:57;0.70;;;0.32;;
37407;SDS011;24866;50.248;8.252;2023-07-28T10:40:27;0.93;;;0.55;;
37407;SDS011;24866;50.248;8.252;2023-07-28T10:42:59;1.35;;;0.40;;
37407;SDS011;24866;50.248;8.252;2023-07-28T10:45:31;0.75;;;0.50;;
37407;SDS011;24866;50.248;8.252;2023-07-28T10:48:01;0.40;;;0.40;;
37407;SDS011;24866;50.248;8.252;2023-07-28T10:50:32;2.20;;;0.50;;
37407;SDS011;24866;50.248;8.252;2023-07-28T10:53:02;0.60;;;0.30;;
37407;SDS011;24866;50.248;8.252;2023-07-28T10:55:32;0.93;;;0.30;;
37407;SDS011;24866;50.248;8.252;2023-07-28T10:58:04;0.75;;;0.52;;
37407;SDS011;24866;50.248;8.252;2023-07-28T11:00:35;0.40;;;0.40;;
37407;SDS011;24866;50.248;8.252;2023-07-28T11:03:05;0.40;;;0.35;;
37407;SDS011;24866;50.248;8.252;2023-07-28T11:05:38;4.57;;;0.55;;
37407;SDS011;24866;50.248;8.252;2023-07-28T11:08:08;1.17;;;0.70;;
37407;SDS011;24866;50.248;8.252;2023-07-28T11:10:39;1.27;;;0.70;;
37407;SDS011;24866;50.248;8.252;2023-07-28T11:13:10;0.60;;;0.43;;
37407;SDS011;24866;50.248;8.252;2023-07-28T11:15:41;1.00;;;0.60;;
37407;SDS011;24866;50.248;8.252;2023-07-28T11:18:14;0.80;;;0.60;;
37407;SDS011;24866;50.248;8.252;2023-07-28T11:20:45;2.05;;;0.70;;
37407;SDS011;24866;50.248;8.252;2023-07-28T11:23:14;2.22;;;0.50;;
37407;SDS011;24866;50.248;8.252;2023-07-28T11:25:45;0.82;;;0.55;;
37407;SDS011;24866;50.248;8.252;2023-07-28T11:28:16;2.55;;;0.60;;
37407;SDS011;24866;50.248;8.252;2023-07-28T11:30:50;0.65;;;0.60;;
37407;SDS011;24866;50.248;8.252;2023-07-28T11:33:20;1.52;;;0.70;;
37407;SDS011;24866;50.248;8.252;2023-07-28T11:35:51;2.53;;;0.60;;
37407;SDS011;24866;50.248;8.252;2023-07-28T11:38:21;0.60;;;0.40;;
37407;SDS011;24866;50.248;8.252;2023-07-28T11:40:51;1.45;;;0.98;;
37407;SDS011;24866;50.248;8.252;2023-07-28T11:43:22;1.52;;;0.70;;
37407;SDS011;24866;50.248;8.252;2023-07-28T11:45:54;1.85;;;0.90;;
37407;SDS011;24866;50.248;8.252;2023-07-28T11:48:24;1.00;;;0.70;;
37407;SDS011;24866;50.248;8.252;2023-07-28T11:50:59;1.23;;;0.70;;
37407;SDS011;24866;50.248;8.252;2023-07-28T11:53:32;1.30;;;0.65;;
37407;SDS011;24866;50.248;8.252;2023-07-28T11:56:03;0.93;;;0.60;;
37407;SDS011;24866;50.248;8.252;2023-07-28T11:58:33;1.42;;;0.80;;
37407;SDS011;24866;50.248;8.252;2023-07-28T12:01:08;0.60;;;0.50;;
37407;SDS011;24866;50.248;8.252;2023-07-28T12:03:38;0.80;;;0.50;;
37407;SDS011;24866;50.248;8.252;2023-07-28T12:06:08;3.03;;;0.63;;
37407;SDS011;24866;50.248;8.252;2023-07-28T12:08:38;1.02;;;0.50;;
37407;SDS011;24866;50.248;8.252;2023-07-28T12:11:11;1.52;;;0.90;;
37407;SDS011;24866;50.248;8.252;2023-07-28T12:13:46;1.58;;;0.98;;
37407;SDS011;24866;50.248;8.252;2023-07-28T12:16:39;1.90;;;0.85;;
37407;SDS011;24866;50.248;8.252;2023-07-28T12:19:11;1.60;;;0.70;;
37407;SDS011;24866;50.248;8.252;2023-07-28T12:21:42;1.05;;;0.60;;
37407;SDS011;24866;50.248;8.252;2023-07-28T12:24:12;2.40;;;0.70;;
37407;SDS011;24866;50.248;8.252;2023-07-28T12:26:43;1.00;;;0.70;;
37407;SDS011;24866;50.248;8.252;2023-07-28T12:29:14;2.25;;;0.80;;
37407;SDS011;24866;50.248;8.252;2023-07-28T12:31:46;1.38;;;0.95;;
37407;SDS011;24866;50.248;8.252;2023-07-28T12:34:16;0.95;;;0.85;;
37407;SDS011;24866;50.248;8.252;2023-07-28T12:36:47;1.48;;;0.93;;
37407;SDS011;24866;50.248;8.252;2023-07-28T12:39:19;1.43;;;0.83;;
37407;SDS011;24866;50.248;8.252;2023-07-28T12:41:49;1.10;;;0.70;;
37407;SDS011;24866;50.248;8.252;2023-07-28T12:44:20;0.82;;;0.40;;
37407;SDS011;24866;50.248;8.252;2023-07-28T12:46:51;1.30;;;1.00;;
37407;SDS011;24866;50.248;8.252;2023-07-28T12:49:21;1.77;;;0.97;;
37407;SDS011;24866;50.248;8.252;2023-07-28T12:51:51;2.53;;;0.90;;
37407;SDS011;24866;50.248;8.252;2023-07-28T12:54:21;1.85;;;1.00;;
37407;SDS011;24866;50.248;8.252;2023-07-28T12:56:53;3.17;;;1.17;;
37407;SDS011;24866;50.248;8.252;2023-07-28T12:59:24;3.92;;;1.17;;
37407;SDS011;24866;50.248;8.252;2023-07-28T13:01:55;0.80;;;0.57;;
37407;SDS011;24866;50.248;8.252;2023-07-28T13:04:25;1.30;;;0.93;;
37407;SDS011;24866;50.248;8.252;2023-07-28T13:06:55;1.35;;;0.90;;
37407;SDS011;24866;50.248;8.252;2023-07-28T13:09:25;1.23;;;0.80;;
37407;SDS011;24866;50.248;8.252;2023-07-28T13:11:56;1.33;;;0.90;;
37407;SDS011;24866;50.248;8.252;2023-07-28T13:14:26;1.10;;;0.90;;
37407;SDS011;24866;50.248;8.252;2023-07-28T13:16:58;2.80;;;0.90;;
37407;SDS011;24866;50.248;8.252;2023-07-28T13:19:29;2.00;;;1.00;;
37407;SDS011;24866;50.248;8.252;2023-07-28T13:21:59;1.40;;;0.98;;
37407;SDS011;24866;50.248;8.252;2023-07-28T13:24:29;2.53;;;1.00;;
37407;SDS011;24866;50.248;8.252;2023-07-28T13:26:59;1.10;;;0.88;;
37407;SDS011;24866;50.248;8.252;2023-07-28T13:29:29;1.40;;;0.98;;
37407;SDS011;24866;50.248;8.252;2023-07-28T13:32:00;1.77;;;1.10;;
37407;SDS011;24866;50.248;8.252;2023-07-28T13:34:31;3.65;;;0.90;;
37407;SDS011;24866;50.248;8.252;2023-07-28T13:37:00;0.90;;;0.70;;
37407;SDS011;24866;50.248;8.252;2023-07-28T13:39:30;2.38;;;1.10;;
37407;SDS011;24866;50.248;8.252;2023-07-28T13:42:00;1.30;;;1.00;;
37407;SDS011;24866;50.248;8.252;2023-07-28T13:44:30;1.58;;;1.10;;
37407;SDS011;24866;50.248;8.252;2023-07-28T13:47:02;1.90;;;1.10;;
37407;SDS011;24866;50.248;8.252;2023-07-28T13:49:33;1.90;;;0.70;;
37407;SDS011;24866;50.248;8.252;2023-07-28T13:52:05;3.75;;;1.17;;
37407;SDS011;24866;50.248;8.252;2023-07-28T13:54:35;0.90;;;0.80;;
37407;SDS011;24866;50.248;8.252;2023-07-28T13:57:05;3.30;;;1.17;;
37407;SDS011;24866;50.248;8.252;2023-07-28T13:59:35;1.63;;;1.08;;
37407;SDS011;24866;50.248;8.252;2023-07-28T14:02:07;1.25;;;0.82;;
37407;SDS011;24866;50.248;8.252;2023-07-28T14:04:37;1.27;;;0.90;;
37407;SDS011;24866;50.248;8.252;2023-07-28T14:07:07;2.97;;;1.00;;
37407;SDS011;24866;50.248;8.252;2023-07-28T14:09:37;1.77;;;1.20;;
37407;SDS011;24866;50.248;8.252;2023-07-28T14:12:07;2.42;;;1.30;;
37407;SDS011;24866;50.248;8.252;2023-07-28T14:14:37;1.52;;;0.90;;
37407;SDS011;24866;50.248;8.252;2023-07-28T14:17:09;2.20;;;1.33;;
37407;SDS011;24866;50.248;8.252;2023-07-28T14:19:39;1.95;;;1.10;;
37407;SDS011;24866;50.248;8.252;2023-07-28T14:22:09;2.90;;;1.25;;
37407;SDS011;24866;50.248;8.252;2023-07-28T14:24:39;2.45;;;1.10;;
37407;SDS011;24866;50.248;8.252;2023-07-28T14:27:09;1.33;;;1.10;;
37407;SDS011;24866;50.248;8.252;2023-07-28T14:29:39;1.17;;;0.85;;
37407;SDS011;24866;50.248;8.252;2023-07-28T14:32:10;1.35;;;0.90;;
37407;SDS011;24866;50.248;8.252;2023-07-28T14:34:40;1.95;;;1.10;;
37407;SDS011;24866;50.248;8.252;2023-07-28T14:37:10;2.33;;;0.90;;
37407;SDS011;24866;50.248;8.252;2023-07-28T14:39:40;1.20;;;1.10;;
37407;SDS011;24866;50.248;8.252;2023-07-28T14:42:10;1.58;;;1.00;;
37407;SDS011;24866;50.248;8.252;2023-07-28T14:44:41;1.70;;;0.88;;
37407;SDS011;24866;50.248;8.252;2023-07-28T14:47:12;1.05;;;0.60;;
37407;SDS011;24866;50.248;8.252;2023-07-28T14:49:42;2.95;;;0.98;;
37407;SDS011;24866;50.248;8.252;2023-07-28T14:52:12;1.85;;;0.80;;
37407;SDS011;24866;50.248;8.252;2023-07-28T14:54:42;0.77;;;0.60;;
37407;SDS011;24866;50.248;8.252;2023-07-28T14:57:12;8.68;;;1.20;;
37407;SDS011;24866;50.248;8.252;2023-07-28T14:59:43;1.48;;;1.00;;
37407;SDS011;24866;50.248;8.252;2023-07-28T15:02:15;2.03;;;0.95;;
37407;SDS011;24866;50.248;8.252;2023-07-28T15:04:45;1.50;;;0.85;;
37407;SDS011;24866;50.248;8.252;2023-07-28T15:07:16;2.33;;;0.93;;
37407;SDS011;24866;50.248;8.252;2023-07-28T15:09:47;1.75;;;0.70;;
37407;SDS011;24866;50.248;8.252;2023-07-28T15:12:17;1.10;;;0.65;;
37407;SDS011;24866;50.248;8.252;2023-07-28T15:14:47;3.20;;;1.00;;